KAOO/AOO METAR and TAF weather

Enter ICAO airport designator
Station Type Date Time Source
KAOO METAR 2020/09/20 14:53 UTC NOAA

KAOO 201453Z AUTO VRB04KT 10SM CLR 12/02 A3052 RMK AO2 SLP342 T01220017 53011


Station Type Date Time Source
KAOO Decoded METAR 2020/09/20 14:53 UTC NOAA

ALTOONA-BLAIR COUNTY AIRPORT, PA, United States (KAOO) 40-18N 78-19W 455M
Sep 20, 2020 - 10:53 AM EDT / 2020.09.20 1453 UTC
Wind: Variable at 5 MPH (4 KT):0
Visibility: 10 mile(s):0
Sky conditions: clear
Temperature: 54.0 F (12.2 C)
Dew Point: 35.1 F (1.7 C)
Relative Humidity: 48%
Pressure (altimeter): 30.52 in. Hg (1033 hPa)
Pressure tendency: 0.03 inches (1.1 hPa) higher than three hours ago
ob: KAOO 201453Z AUTO VRB04KT 10SM CLR 12/02 A3052 RMK AO2 SLP342 T01220017 53011
cycle: 15

Station Type Date Time Source
KAOO TAF 2020/09/20 15:12 UTC NOAA

TAF
AMD KAOO 201508Z 2015/2112 VRB04KT P6SM SKC

Example: see airport list